Time;durP1;ratioP1;P1;durP2;ratioP2;P2;SDS_P1;SDS_P2;PMS_P1;PMS_P2;Temp;Humidity;BMP_temperature;BMP_pressure;BME280_temperature;BME280_humidity;BME280_pressure;Samples;Min_cycle;Max_cycle;Signal;HPM_P1;HPM_P2
2022/03/07 00:00:23;;;;;;;0.38;0.28;;;0.70;71.20;;;;;;5113424;28;20040;-72
2022/03/07 00:02:49;;;;;;;0.20;0.20;;;0.70;71.30;;;;;;5077752;28;20393;-72
2022/03/07 00:05:15;;;;;;;0.10;0.10;;;0.70;71.30;;;;;;5094410;28;20512;-72
2022/03/07 00:07:41;;;;;;;0.20;0.20;;;0.70;71.30;;;;;;5094915;28;20055;-72
2022/03/07 00:10:07;;;;;;;0.13;0.13;;;0.70;71.40;;;;;;5094259;28;20044;-72
2022/03/07 00:12:33;;;;;;;0.28;0.20;;;0.70;71.40;;;;;;5094803;28;20044;-71
2022/03/07 00:14:58;;;;;;;0.32;0.20;;;0.60;71.50;;;;;;5060842;28;20130;-73
2022/03/07 00:17:24;;;;;;;0.32;0.20;;;0.60;71.50;;;;;;5112550;28;20078;-72
2022/03/07 00:19:50;;;;;;;0.35;0.17;;;0.50;71.50;;;;;;5060676;28;20032;-71
2022/03/07 00:22:15;;;;;;;0.20;0.20;;;0.50;71.70;;;;;;5112897;28;20031;-71
2022/03/07 00:24:41;;;;;;;0.65;0.20;;;0.50;71.70;;;;;;5113192;28;20404;-71
2022/03/07 00:27:07;;;;;;;0.10;0.10;;;0.60;71.80;;;;;;5116218;28;20039;-71
2022/03/07 00:29:32;;;;;;;0.20;0.20;;;0.50;71.80;;;;;;5079976;28;20044;-72
2022/03/07 00:31:58;;;;;;;0.20;0.20;;;0.50;71.80;;;;;;5098245;28;20385;-73
2022/03/07 00:34:24;;;;;;;0.10;0.10;;;0.40;71.70;;;;;;5116138;28;20050;-73
2022/03/07 00:36:49;;;;;;;0.13;0.10;;;0.40;71.70;;;;;;5080932;28;20043;-73
2022/03/07 00:39:15;;;;;;;0.38;0.20;;;0.40;71.80;;;;;;5116331;28;20489;-73
2022/03/07 00:41:41;;;;;;;0.32;0.20;;;0.40;71.80;;;;;;5098092;28;20430;-74
2022/03/07 00:44:07;;;;;;;0.13;0.13;;;0.30;71.80;;;;;;5080712;28;20055;-73
2022/03/07 00:46:33;;;;;;;0.10;0.10;;;0.40;71.90;;;;;;5092890;28;20108;-72
2022/03/07 00:48:58;;;;;;;0.40;0.20;;;0.30;71.90;;;;;;5093495;28;20131;-72
2022/03/07 00:51:25;;;;;;;0.47;0.20;;;0.30;72.00;;;;;;5093183;28;20048;-72
2022/03/07 00:53:51;;;;;;;0.65;0.20;;;0.20;72.00;;;;;;5075884;28;20083;-72
2022/03/07 00:56:16;;;;;;;0.10;0.10;;;0.20;72.10;;;;;;5093067;28;20032;-72
2022/03/07 00:58:42;;;;;;;0.30;0.28;;;0.20;72.20;;;;;;5093347;28;20520;-72
2022/03/07 01:01:09;;;;;;;0.20;0.20;;;0.20;72.30;;;;;;5076036;28;20055;-72
2022/03/07 01:03:35;;;;;;;0.20;0.20;;;0.10;72.30;;;;;;5075819;28;20375;-72
2022/03/07 01:06:01;;;;;;;0.10;0.10;;;0.10;72.30;;;;;;5075821;28;20031;-72
2022/03/07 01:08:26;;;;;;;0.30;0.20;;;0.10;72.40;;;;;;5092812;28;20051;-72
2022/03/07 01:10:53;;;;;;;0.20;0.20;;;0.00;72.50;;;;;;5092811;28;20436;-72
2022/03/07 01:13:19;;;;;;;0.43;0.20;;;0.00;72.60;;;;;;5093189;28;20043;-72
2022/03/07 01:15:46;;;;;;;0.20;0.20;;;0.00;72.60;;;;;;5093327;28;20056;-72
2022/03/07 01:18:12;;;;;;;0.30;0.30;;;0.00;72.70;;;;;;5075367;28;20047;-72
2022/03/07 01:20:37;;;;;;;0.20;0.20;;;-0.10;72.60;;;;;;5115147;28;20389;-72
2022/03/07 01:23:03;;;;;;;0.15;0.15;;;-0.10;72.60;;;;;;5115710;28;20044;-73
2022/03/07 01:25:29;;;;;;;0.20;0.20;;;-0.10;72.70;;;;;;5097548;28;20066;-72
2022/03/07 01:27:55;;;;;;;0.20;0.20;;;0.00;72.80;;;;;;5115516;28;20122;-72
2022/03/07 01:30:22;;;;;;;0.20;0.20;;;-0.10;72.60;;;;;;5114964;28;20126;-72
2022/03/07 01:32:48;;;;;;;0.52;0.30;;;-0.20;72.60;;;;;;5115048;28;20400;-72
2022/03/07 01:35:13;;;;;;;0.35;0.30;;;-0.20;72.60;;;;;;5115112;28;20035;-72
2022/03/07 01:37:39;;;;;;;0.40;0.30;;;-0.20;72.60;;;;;;5095524;28;20042;-72
2022/03/07 01:40:06;;;;;;;0.40;0.22;;;-0.20;72.80;;;;;;5096599;28;20044;-72
2022/03/07 01:42:32;;;;;;;0.22;0.10;;;-0.30;72.90;;;;;;5096454;28;20096;-72
2022/03/07 01:45:11;;;;;;;0.30;0.30;;;-0.40;73.00;;;;;;5096625;28;20122;-72
2022/03/07 01:47:37;;;;;;;0.32;0.20;;;-0.30;73.10;;;;;;5096217;28;20134;-72
2022/03/07 01:50:06;;;;;;;0.20;0.20;;;-0.40;73.00;;;;;;5096951;28;20128;-72
2022/03/07 01:52:35;;;;;;;0.52;0.40;;;-0.50;73.10;;;;;;5114677;28;20423;-72
2022/03/07 01:55:01;;;;;;;0.20;0.17;;;-0.50;73.10;;;;;;5096712;28;20059;-72
2022/03/07 01:57:29;;;;;;;0.20;0.10;;;-0.50;73.20;;;;;;5114640;28;20031;-73
2022/03/07 01:59:55;;;;;;;0.35;0.20;;;-0.50;73.30;;;;;;5096129;28;20118;-72
2022/03/07 02:02:20;;;;;;;0.20;0.20;;;-0.60;73.30;;;;;;5114574;28;20059;-72
2022/03/07 02:04:46;;;;;;;0.47;0.35;;;-0.50;73.50;;;;;;5114365;28;20036;-72
2022/03/07 02:07:12;;;;;;;0.80;0.13;;;-0.60;73.40;;;;;;5114847;28;20031;-72
2022/03/07 02:09:38;;;;;;;0.20;0.15;;;-0.60;73.40;;;;;;5114280;28;20123;-72
2022/03/07 02:12:03;;;;;;;0.15;0.15;;;-0.60;73.50;;;;;;5114403;28;20039;-72
2022/03/07 02:14:30;;;;;;;0.10;0.10;;;-0.70;73.50;;;;;;5096345;28;20040;-73
2022/03/07 02:16:56;;;;;;;0.40;0.30;;;-0.70;73.60;;;;;;5096183;28;20040;-72
2022/03/07 02:19:22;;;;;;;0.22;0.20;;;-0.70;73.60;;;;;;5096112;28;20074;-72
2022/03/07 02:21:52;;;;;;;0.28;0.20;;;-0.70;73.70;;;;;;5096036;28;20098;-72
2022/03/07 02:24:19;;;;;;;0.30;0.22;;;-0.80;73.70;;;;;;5114224;28;20051;-72
2022/03/07 02:27:05;;;;;;;0.40;0.25;;;-0.80;73.70;;;;;;5096048;28;20474;-72
2022/03/07 02:29:32;;;;;;;0.70;0.30;;;-0.80;73.90;;;;;;5113068;28;20508;-72
2022/03/07 02:31:58;;;;;;;0.30;0.20;;;-0.80;73.80;;;;;;5096432;28;20058;-72
2022/03/07 02:34:24;;;;;;;0.20;0.20;;;-0.80;73.80;;;;;;5096134;28;20055;-72
2022/03/07 02:36:51;;;;;;;0.52;0.15;;;-0.90;73.80;;;;;;5114035;28;20039;-73
2022/03/07 02:39:17;;;;;;;0.17;0.17;;;-0.80;74.50;;;;;;5113820;28;20485;-72
2022/03/07 02:41:44;;;;;;;0.20;0.20;;;-0.90;73.90;;;;;;5095697;28;20070;-73
2022/03/07 02:44:10;;;;;;;0.20;0.20;;;-0.90;73.90;;;;;;5095696;28;20043;-73
2022/03/07 02:46:36;;;;;;;0.20;0.20;;;-1.00;73.90;;;;;;5113845;28;20063;-73
2022/03/07 02:49:03;;;;;;;0.75;0.38;;;-1.00;74.00;;;;;;5113564;28;20066;-72
2022/03/07 02:51:28;;;;;;;0.75;0.40;;;-1.00;74.10;;;;;;5113697;28;20040;-73
2022/03/07 02:53:54;;;;;;;0.20;0.20;;;-1.10;74.10;;;;;;5095282;28;20062;-72
2022/03/07 02:56:20;;;;;;;0.25;0.10;;;-1.10;74.10;;;;;;5113639;28;20031;-72
2022/03/07 02:58:46;;;;;;;0.25;0.15;;;-1.10;74.20;;;;;;5113623;28;20036;-72
2022/03/07 03:01:12;;;;;;;0.20;0.20;;;-1.10;74.20;;;;;;5113562;28;20457;-72
2022/03/07 03:03:38;;;;;;;0.35;0.30;;;-1.10;74.30;;;;;;5113985;28;20055;-72
2022/03/07 03:06:03;;;;;;;0.55;0.25;;;-1.10;74.30;;;;;;5113890;28;20050;-73
2022/03/07 03:08:29;;;;;;;0.20;0.20;;;-1.10;74.40;;;;;;5095632;28;20032;-72
2022/03/07 03:10:59;;;;;;;0.38;0.20;;;-1.20;74.40;;;;;;5095000;28;20040;-72
2022/03/07 03:13:25;;;;;;;0.10;0.10;;;-1.20;74.50;;;;;;5113184;28;20362;-72
2022/03/07 03:15:52;;;;;;;0.40;0.30;;;-1.20;74.50;;;;;;5113075;28;20043;-72
2022/03/07 03:18:19;;;;;;;0.17;0.17;;;-1.20;74.50;;;;;;5095251;28;20043;-72
2022/03/07 03:20:46;;;;;;;0.15;0.15;;;-1.20;74.50;;;;;;5113302;28;20039;-72
2022/03/07 03:23:13;;;;;;;0.20;0.20;;;-1.20;74.60;;;;;;5113110;28;20046;-72
2022/03/07 03:25:38;;;;;;;0.63;0.30;;;-1.20;74.60;;;;;;5113662;28;20924;-72
2022/03/07 03:28:05;;;;;;;0.30;0.10;;;-1.20;74.50;;;;;;5078388;28;20066;-73
2022/03/07 03:30:31;;;;;;;0.35;0.20;;;-1.20;75.10;;;;;;5113194;28;20047;-73
2022/03/07 03:32:57;;;;;;;0.32;0.30;;;-1.20;74.50;;;;;;5094985;28;20118;-72
2022/03/07 03:35:23;;;;;;;0.80;0.43;;;-1.20;74.60;;;;;;5094718;28;20066;-72
2022/03/07 03:37:49;;;;;;;0.20;0.20;;;-1.30;74.50;;;;;;5113045;28;20043;-72
2022/03/07 03:40:15;;;;;;;0.45;0.20;;;-1.30;74.50;;;;;;5112925;28;20046;-72
2022/03/07 03:42:41;;;;;;;0.17;0.17;;;-1.30;74.50;;;;;;5094676;28;20051;-72
2022/03/07 03:45:08;;;;;;;0.73;0.30;;;-1.30;74.60;;;;;;5112762;28;20044;-72
2022/03/07 03:47:37;;;;;;;0.30;0.20;;;-1.20;74.60;;;;;;5095304;28;20044;-72
2022/03/07 03:50:05;;;;;;;0.55;0.40;;;-1.20;74.60;;;;;;5113012;28;20097;-72
2022/03/07 03:52:31;;;;;;;0.40;0.20;;;-1.20;74.50;;;;;;5077946;28;20479;-72
2022/03/07 03:54:57;;;;;;;0.52;0.30;;;-1.20;74.60;;;;;;5094457;28;20047;-72
2022/03/07 03:57:23;;;;;;;0.30;0.20;;;-1.20;74.50;;;;;;5094950;28;20092;-72
2022/03/07 03:59:49;;;;;;;0.20;0.20;;;-1.20;74.50;;;;;;5112120;28;20032;-72
2022/03/07 04:02:14;;;;;;;0.75;0.30;;;-1.10;74.50;;;;;;5112671;28;20420;-72
2022/03/07 04:04:40;;;;;;;1.00;0.40;;;-1.10;74.50;;;;;;5094100;28;20405;-71
2022/03/07 04:07:07;;;;;;;0.38;0.30;;;-1.10;74.40;;;;;;5094219;28;20048;-72
2022/03/07 04:09:34;;;;;;;0.47;0.30;;;-1.10;74.40;;;;;;5112401;28;20116;-72
2022/03/07 04:12:00;;;;;;;0.32;0.20;;;-1.10;74.30;;;;;;5077260;28;20500;-72
2022/03/07 04:14:26;;;;;;;0.10;0.10;;;-1.10;74.40;;;;;;5094210;28;20050;-72
2022/03/07 04:16:53;;;;;;;0.22;0.15;;;-1.00;74.40;;;;;;5112709;28;20057;-72
2022/03/07 04:19:18;;;;;;;0.50;0.30;;;-1.00;74.30;;;;;;5112977;28;20063;-72
2022/03/07 04:21:44;;;;;;;0.28;0.15;;;-1.00;74.30;;;;;;5112729;28;20075;-72
2022/03/07 04:24:12;;;;;;;0.20;0.17;;;-0.90;74.40;;;;;;5112678;28;20042;-72
2022/03/07 04:26:39;;;;;;;0.57;0.20;;;-0.90;74.40;;;;;;5112853;28;20477;-72
2022/03/07 04:29:07;;;;;;;0.85;0.40;;;-0.90;74.30;;;;;;5112265;28;20043;-73
2022/03/07 04:31:34;;;;;;;0.63;0.35;;;-0.90;74.30;;;;;;5093924;28;20048;-72
2022/03/07 04:34:00;;;;;;;0.80;0.50;;;-0.90;74.30;;;;;;5112334;28;20077;-72
2022/03/07 04:36:26;;;;;;;0.43;0.30;;;-0.90;74.30;;;;;;5112232;28;20031;-72
2022/03/07 04:38:52;;;;;;;0.57;0.40;;;-0.80;74.40;;;;;;5112125;28;20135;-72
2022/03/07 04:41:18;;;;;;;0.50;0.40;;;-0.80;74.40;;;;;;5112034;28;20085;-72
2022/03/07 04:43:44;;;;;;;0.68;0.25;;;-0.90;74.40;;;;;;5112152;28;20048;-72
2022/03/07 04:46:11;;;;;;;0.30;0.30;;;-0.90;74.40;;;;;;5093835;28;20035;-72
2022/03/07 04:48:37;;;;;;;0.85;0.40;;;-0.90;74.40;;;;;;5110334;28;20036;-72
2022/03/07 04:51:03;;;;;;;0.77;0.40;;;-0.90;74.50;;;;;;5076706;28;20400;-73
2022/03/07 04:53:29;;;;;;;0.60;0.40;;;-0.90;74.50;;;;;;5093572;28;20054;-73
2022/03/07 04:55:56;;;;;;;0.40;0.40;;;-0.90;74.60;;;;;;5111829;28;20032;-72
2022/03/07 04:58:21;;;;;;;0.32;0.30;;;-0.90;74.60;;;;;;5112091;28;20047;-73
2022/03/07 05:00:47;;;;;;;0.25;0.20;;;-0.90;74.60;;;;;;5093810;28;20032;-73
2022/03/07 05:03:13;;;;;;;0.55;0.40;;;-0.90;74.60;;;;;;5093862;28;20111;-74
2022/03/07 05:05:39;;;;;;;0.40;0.30;;;-1.00;74.60;;;;;;5112148;28;20043;-72
2022/03/07 05:08:05;;;;;;;0.20;0.20;;;-1.00;74.80;;;;;;5112419;28;20112;-72
2022/03/07 05:10:30;;;;;;;0.52;0.40;;;-1.10;74.90;;;;;;5112401;28;20121;-73
2022/03/07 05:12:57;;;;;;;1.00;0.50;;;-1.10;75.00;;;;;;5114183;28;20485;-72
2022/03/07 05:15:23;;;;;;;0.60;0.40;;;-1.10;75.10;;;;;;5115466;28;20458;-72
2022/03/07 05:17:53;;;;;;;0.30;0.30;;;-1.20;75.00;;;;;;5080433;28;20123;-72
2022/03/07 05:20:22;;;;;;;0.60;0.40;;;-1.20;75.20;;;;;;5115164;28;20062;-73
2022/03/07 05:22:48;;;;;;;0.98;0.40;;;-1.20;75.30;;;;;;5115413;28;20062;-72
2022/03/07 05:25:16;;;;;;;0.75;0.40;;;-1.30;75.30;;;;;;5080197;28;20489;-72
2022/03/07 05:27:42;;;;;;;0.30;0.20;;;-1.30;75.40;;;;;;5115586;28;20067;-72
2022/03/07 05:30:10;;;;;;;1.33;0.45;;;-1.40;75.50;;;;;;5115112;28;20070;-72
2022/03/07 05:32:36;;;;;;;0.75;0.40;;;-1.40;75.60;;;;;;5080814;28;20051;-73
2022/03/07 05:35:03;;;;;;;0.43;0.30;;;-1.50;75.60;;;;;;5096773;28;20043;-73
2022/03/07 05:37:29;;;;;;;0.50;0.40;;;-1.40;75.80;;;;;;5097211;28;20496;-72
2022/03/07 05:39:55;;;;;;;0.70;0.30;;;-1.60;75.70;;;;;;5096781;28;20077;-72
2022/03/07 05:42:22;;;;;;;0.55;0.40;;;-1.50;75.90;;;;;;5114911;28;20040;-72
2022/03/07 05:44:48;;;;;;;0.80;0.40;;;-1.60;75.90;;;;;;5096843;28;20047;-73
2022/03/07 05:47:14;;;;;;;0.60;0.43;;;-1.60;76.00;;;;;;5096698;28;20512;-72
2022/03/07 05:49:39;;;;;;;0.88;0.30;;;-1.60;76.00;;;;;;5115107;28;20413;-72
2022/03/07 05:52:05;;;;;;;0.88;0.50;;;-1.60;76.00;;;;;;5114811;28;20032;-72
2022/03/07 05:54:31;;;;;;;1.13;0.50;;;-1.60;76.00;;;;;;5096775;28;20463;-72
2022/03/07 05:56:57;;;;;;;0.57;0.30;;;-1.60;76.10;;;;;;5115444;28;20040;-72
2022/03/07 05:59:23;;;;;;;0.98;0.50;;;-1.50;76.10;;;;;;5115100;28;20039;-72
2022/03/07 06:01:49;;;;;;;0.45;0.30;;;-1.70;75.90;;;;;;5096785;28;20092;-72
2022/03/07 06:04:15;;;;;;;0.88;0.43;;;-1.60;76.00;;;;;;5115198;28;20048;-73
2022/03/07 06:06:41;;;;;;;0.45;0.20;;;-1.60;76.00;;;;;;5097071;28;20031;-72
2022/03/07 06:09:06;;;;;;;0.30;0.30;;;-1.60;76.00;;;;;;5115233;28;20036;-72
2022/03/07 06:11:33;;;;;;;0.80;0.40;;;-1.60;76.00;;;;;;5114806;28;20039;-72
2022/03/07 06:13:59;;;;;;;0.17;0.15;;;-1.60;76.00;;;;;;5115028;28;20073;-73
2022/03/07 06:16:24;;;;;;;1.40;0.43;;;-1.60;76.00;;;;;;5114482;28;20112;-73
2022/03/07 06:18:50;;;;;;;0.73;0.40;;;-1.50;76.00;;;;;;5114413;28;20588;-72
2022/03/07 06:21:16;;;;;;;0.25;0.20;;;-1.50;76.00;;;;;;5114730;28;20044;-72
2022/03/07 06:23:42;;;;;;;0.60;0.32;;;-1.50;76.00;;;;;;5095978;28;20047;-72
2022/03/07 06:26:08;;;;;;;0.40;0.30;;;-1.50;76.00;;;;;;5114997;28;20461;-73
2022/03/07 06:28:34;;;;;;;0.32;0.20;;;-1.40;75.90;;;;;;5114346;28;20035;-73
2022/03/07 06:31:01;;;;;;;0.60;0.47;;;-1.40;75.90;;;;;;5095981;28;20466;-73
2022/03/07 06:33:27;;;;;;;0.65;0.43;;;-1.40;75.80;;;;;;5095951;28;20043;-72
2022/03/07 06:35:53;;;;;;;0.63;0.35;;;-1.40;75.80;;;;;;5114653;28;20088;-73
2022/03/07 06:38:19;;;;;;;0.30;0.30;;;-1.40;75.80;;;;;;5095831;28;20050;-73
2022/03/07 06:40:45;;;;;;;0.55;0.20;;;-1.30;75.80;;;;;;5113963;28;20054;-72
2022/03/07 06:43:12;;;;;;;0.80;0.40;;;-1.40;75.70;;;;;;5095590;28;20142;-72
2022/03/07 06:45:38;;;;;;;0.40;0.20;;;-1.30;75.70;;;;;;5095767;28;20382;-72
2022/03/07 06:48:04;;;;;;;1.10;0.45;;;-1.20;75.70;;;;;;5096419;28;20474;-72
2022/03/07 06:50:30;;;;;;;0.68;0.50;;;-1.30;75.70;;;;;;5114405;28;20074;-73
2022/03/07 06:52:57;;;;;;;0.45;0.30;;;-1.20;75.70;;;;;;5113997;28;20485;-73
2022/03/07 06:55:23;;;;;;;0.52;0.30;;;-1.20;75.70;;;;;;5114331;28;20076;-73
2022/03/07 06:57:48;;;;;;;0.47;0.40;;;-1.20;75.60;;;;;;5096039;28;20040;-72
2022/03/07 07:00:15;;;;;;;0.32;0.32;;;-1.20;75.60;;;;;;5114311;28;20039;-72
2022/03/07 07:02:42;;;;;;;1.05;0.45;;;-1.20;75.60;;;;;;5113647;28;20386;-72
2022/03/07 07:05:08;;;;;;;0.38;0.38;;;-1.20;75.60;;;;;;5076498;28;20486;-72
2022/03/07 07:07:35;;;;;;;1.13;0.32;;;-1.10;75.60;;;;;;5095279;28;20036;-73
2022/03/07 07:10:01;;;;;;;0.50;0.30;;;-1.10;75.60;;;;;;5113462;28;20114;-73
2022/03/07 07:12:27;;;;;;;0.40;0.40;;;-1.10;75.60;;;;;;5113549;28;20122;-73
2022/03/07 07:14:52;;;;;;;0.57;0.40;;;-0.90;75.70;;;;;;5113623;28;20077;-72
2022/03/07 07:17:18;;;;;;;0.40;0.38;;;-1.00;75.60;;;;;;5113255;28;20058;-73
2022/03/07 07:19:44;;;;;;;0.40;0.30;;;-0.90;75.60;;;;;;5094857;28;20443;-73
2022/03/07 07:22:10;;;;;;;1.00;0.60;;;-0.90;75.50;;;;;;5095030;28;20118;-73
2022/03/07 07:24:36;;;;;;;0.70;0.22;;;-0.90;75.40;;;;;;5113225;28;20042;-72
2022/03/07 07:27:03;;;;;;;0.30;0.30;;;-0.80;75.40;;;;;;5113421;28;20042;-72
2022/03/07 07:29:29;;;;;;;1.10;0.50;;;-0.80;75.50;;;;;;5113648;28;20458;-74
2022/03/07 07:31:54;;;;;;;0.98;0.50;;;-0.80;75.40;;;;;;5061666;28;20138;-73
2022/03/07 07:34:21;;;;;;;0.85;0.50;;;-0.70;75.40;;;;;;5112398;28;20043;-73
2022/03/07 07:36:48;;;;;;;0.47;0.30;;;-0.70;75.40;;;;;;5112943;28;20036;-73
2022/03/07 07:39:14;;;;;;;0.57;0.40;;;-0.60;75.40;;;;;;5113389;28;20401;-73
2022/03/07 07:41:40;;;;;;;0.82;0.60;;;-0.50;75.40;;;;;;5095366;28;20050;-72
2022/03/07 07:44:05;;;;;;;1.10;0.68;;;-0.50;75.20;;;;;;5113569;28;20043;-73
2022/03/07 07:46:31;;;;;;;1.52;0.50;;;-0.30;75.10;;;;;;5113104;28;20502;-73
2022/03/07 07:48:57;;;;;;;0.35;0.32;;;-0.10;75.00;;;;;;5096103;28;20046;-74
2022/03/07 07:51:22;;;;;;;0.60;0.40;;;0.00;74.70;;;;;;5097894;28;20040;-74
2022/03/07 07:53:48;;;;;;;0.57;0.32;;;0.10;74.50;;;;;;5096063;28;20035;-72
2022/03/07 07:56:14;;;;;;;0.65;0.60;;;0.30;74.40;;;;;;5095726;28;20040;-71
2022/03/07 07:58:40;;;;;;;1.55;0.45;;;0.30;74.30;;;;;;5113998;28;20458;-71
2022/03/07 08:01:07;;;;;;;0.57;0.47;;;0.50;74.20;;;;;;5114437;28;20036;-71
2022/03/07 08:03:33;;;;;;;2.05;0.45;;;0.70;74.10;;;;;;5113880;28;20042;-71
2022/03/07 08:05:58;;;;;;;0.68;0.38;;;0.80;73.90;;;;;;5114014;28;20043;-73
2022/03/07 08:08:24;;;;;;;0.35;0.30;;;1.00;73.70;;;;;;5114060;28;20405;-72
2022/03/07 08:10:50;;;;;;;0.88;0.40;;;1.20;73.60;;;;;;5078174;28;20054;-72
2022/03/07 08:13:16;;;;;;;0.80;0.50;;;1.40;73.50;;;;;;5114385;28;20043;-73
2022/03/07 08:15:42;;;;;;;0.88;0.50;;;1.50;73.20;;;;;;5114401;28;20153;-73
2022/03/07 08:18:08;;;;;;;1.05;0.77;;;1.70;73.00;;;;;;5095523;28;20078;-72
2022/03/07 08:20:34;;;;;;;1.10;0.60;;;1.90;72.90;;;;;;5094777;28;20040;-73
2022/03/07 08:23:00;;;;;;;0.80;0.50;;;2.00;72.70;;;;;;5112752;28;20119;-73
2022/03/07 08:25:26;;;;;;;0.95;0.77;;;2.20;72.50;;;;;;5094460;28;20044;-72
2022/03/07 08:27:53;;;;;;;1.25;0.70;;;2.30;72.30;;;;;;5112631;28;20036;-72
2022/03/07 08:30:22;;;;;;;0.93;0.70;;;2.50;72.20;;;;;;5112937;28;20038;-72
2022/03/07 08:32:49;;;;;;;0.95;0.60;;;2.60;72.10;;;;;;5077901;28;20043;-72
2022/03/07 08:35:15;;;;;;;0.73;0.57;;;2.70;72.00;;;;;;5112583;28;20065;-72
2022/03/07 08:37:44;;;;;;;0.70;0.50;;;2.90;72.00;;;;;;5112523;28;20052;-72
2022/03/07 08:40:11;;;;;;;1.33;0.70;;;2.90;71.80;;;;;;5077735;28;20040;-72
2022/03/07 08:42:38;;;;;;;1.00;0.70;;;3.00;71.80;;;;;;5094049;28;20139;-72
2022/03/07 08:45:05;;;;;;;1.08;0.60;;;3.20;71.70;;;;;;5094267;28;20454;-72
2022/03/07 08:47:30;;;;;;;1.70;1.00;;;3.30;71.70;;;;;;5115810;28;20040;-73
2022/03/07 08:49:56;;;;;;;1.58;0.85;;;3.40;71.60;;;;;;5115950;28;20049;-72
2022/03/07 08:52:22;;;;;;;1.08;0.77;;;3.50;71.50;;;;;;5115861;28;20040;-72
2022/03/07 08:54:48;;;;;;;1.00;0.63;;;3.50;72.00;;;;;;5097575;28;20074;-72
2022/03/07 08:57:14;;;;;;;1.08;0.73;;;3.60;71.30;;;;;;5115927;28;20493;-72
2022/03/07 08:59:40;;;;;;;0.77;0.65;;;3.70;71.40;;;;;;5116246;28;20067;-73
2022/03/07 09:02:09;;;;;;;1.73;0.90;;;3.70;71.30;;;;;;5097668;28;20039;-73
2022/03/07 09:04:36;;;;;;;1.63;0.75;;;3.80;71.40;;;;;;5098017;28;20043;-74
2022/03/07 09:07:02;;;;;;;1.00;0.73;;;3.80;71.30;;;;;;5080570;28;20369;-73
2022/03/07 09:09:28;;;;;;;0.70;0.50;;;4.00;71.30;;;;;;5115568;28;20046;-74
2022/03/07 09:11:54;;;;;;;1.38;0.70;;;4.00;71.90;;;;;;5097380;28;20670;-74
2022/03/07 09:14:20;;;;;;;1.42;0.88;;;4.00;71.30;;;;;;5115695;28;20071;-72
2022/03/07 09:16:47;;;;;;;0.80;0.60;;;4.20;71.30;;;;;;5115901;28;20112;-73
2022/03/07 09:19:12;;;;;;;1.23;0.80;;;4.20;71.10;;;;;;5097442;28;20050;-73
2022/03/07 09:21:38;;;;;;;0.90;0.73;;;4.30;71.10;;;;;;5115457;28;20035;-73
2022/03/07 09:24:05;;;;;;;1.48;0.77;;;4.30;70.90;;;;;;5096926;28;20493;-72
2022/03/07 09:26:31;;;;;;;1.10;0.75;;;4.30;70.80;;;;;;5115634;28;20517;-72
2022/03/07 09:28:57;;;;;;;0.88;0.60;;;4.30;70.70;;;;;;5115226;28;20067;-73
2022/03/07 09:31:22;;;;;;;1.42;0.98;;;4.40;70.70;;;;;;5097265;28;20126;-73
2022/03/07 09:33:48;;;;;;;1.50;0.80;;;4.40;70.60;;;;;;5097474;28;20040;-72
2022/03/07 09:36:14;;;;;;;0.70;0.70;;;4.50;70.60;;;;;;5096811;28;20039;-72
2022/03/07 09:38:40;;;;;;;0.43;0.43;;;4.50;70.50;;;;;;5115097;28;20032;-71
2022/03/07 09:41:06;;;;;;;0.73;0.60;;;4.60;70.50;;;;;;5096863;28;20127;-72
2022/03/07 09:43:32;;;;;;;0.60;0.57;;;4.60;70.40;;;;;;5096995;28;20032;-72
2022/03/07 09:45:58;;;;;;;1.15;0.70;;;4.70;70.30;;;;;;5097119;28;20138;-72
2022/03/07 09:48:26;;;;;;;0.75;0.63;;;4.80;70.20;;;;;;5115519;28;20044;-71
2022/03/07 09:50:53;;;;;;;1.50;0.75;;;4.80;70.10;;;;;;5097421;28;20385;-72
2022/03/07 09:53:19;;;;;;;1.67;0.82;;;4.80;70.00;;;;;;5115120;28;20493;-73
2022/03/07 09:55:46;;;;;;;0.77;0.77;;;4.80;69.90;;;;;;5096796;28;20082;-73
2022/03/07 09:58:13;;;;;;;1.73;0.93;;;4.90;69.90;;;;;;5114320;28;20170;-72
2022/03/07 10:00:41;;;;;;;0.63;0.55;;;5.00;69.80;;;;;;5115238;28;20035;-73
2022/03/07 10:03:10;;;;;;;2.72;0.70;;;5.10;69.70;;;;;;5115188;28;20044;-72
2022/03/07 10:05:40;;;;;;;0.80;0.80;;;5.30;69.60;;;;;;5115107;28;20039;-72
2022/03/07 10:08:07;;;;;;;0.73;0.70;;;5.20;69.40;;;;;;5115364;28;20040;-72
2022/03/07 10:10:36;;;;;;;1.00;0.60;;;5.20;69.40;;;;;;5096515;28;20039;-72
2022/03/07 10:13:08;;;;;;;1.05;0.60;;;5.20;69.50;;;;;;5096252;28;20043;-72
2022/03/07 10:15:35;;;;;;;0.55;0.52;;;5.30;69.60;;;;;;5096524;28;20390;-72
2022/03/07 10:18:01;;;;;;;1.10;0.80;;;5.30;69.50;;;;;;5115148;28;20044;-72
2022/03/07 10:20:27;;;;;;;1.08;0.80;;;5.20;69.30;;;;;;5115159;28;20084;-72
2022/03/07 10:22:55;;;;;;;0.75;0.70;;;5.40;69.40;;;;;;5096327;28;20074;-71
2022/03/07 10:25:28;;;;;;;0.90;0.80;;;5.40;69.30;;;;;;5114490;28;20040;-73
2022/03/07 10:27:56;;;;;;;0.70;0.70;;;5.40;69.10;;;;;;5114472;28;20043;-72
2022/03/07 10:30:25;;;;;;;1.17;0.80;;;5.40;69.10;;;;;;5096309;28;20039;-72
2022/03/07 10:33:08;;;;;;;1.27;0.82;;;5.40;69.10;;;;;;5114365;28;20044;-72
2022/03/07 10:35:40;;;;;;;1.92;0.80;;;5.40;69.00;;;;;;5094954;28;20112;-73
2022/03/07 10:38:10;;;;;;;0.70;0.70;;;5.40;69.00;;;;;;5114275;28;20114;-72
2022/03/07 10:40:39;;;;;;;0.80;0.80;;;5.50;69.50;;;;;;5079571;28;20043;-72
2022/03/07 10:43:06;;;;;;;1.55;0.90;;;5.50;68.90;;;;;;5096471;28;20479;-72
2022/03/07 10:45:45;;;;;;;1.27;0.90;;;5.60;68.90;;;;;;5114129;28;20040;-73
2022/03/07 10:48:11;;;;;;;1.40;1.00;;;5.70;68.80;;;;;;5078988;28;20485;-72
2022/03/07 10:50:37;;;;;;;0.90;0.63;;;5.70;68.70;;;;;;5114393;28;20039;-73
2022/03/07 10:53:06;;;;;;;0.98;0.77;;;5.70;68.50;;;;;;5114121;28;20028;-73
2022/03/07 10:55:33;;;;;;;1.30;0.80;;;5.80;68.30;;;;;;5095865;28;20500;-73
2022/03/07 10:58:13;;;;;;;0.70;0.70;;;5.90;68.20;;;;;;5096266;28;20031;-72
2022/03/07 11:00:49;;;;;;;0.90;0.80;;;5.80;68.00;;;;;;5095705;28;20049;-73
2022/03/07 11:03:17;;;;;;;0.60;0.60;;;5.90;68.10;;;;;;5114245;28;20039;-73
2022/03/07 11:05:44;;;;;;;1.42;0.90;;;6.10;68.00;;;;;;5114216;28;20047;-73
2022/03/07 11:08:10;;;;;;;0.90;0.73;;;6.10;67.80;;;;;;5114094;28;20032;-73
2022/03/07 11:10:37;;;;;;;1.08;0.68;;;6.10;67.80;;;;;;5114080;28;20065;-74
2022/03/07 11:13:03;;;;;;;0.93;0.75;;;6.20;67.70;;;;;;5114335;28;20047;-73
2022/03/07 11:15:30;;;;;;;1.48;0.50;;;6.20;67.60;;;;;;5114254;28;20039;-72
2022/03/07 11:17:56;;;;;;;1.23;0.70;;;6.30;67.40;;;;;;5113756;28;20039;-73
2022/03/07 11:20:22;;;;;;;0.52;0.50;;;6.30;67.30;;;;;;5113574;28;20496;-73
2022/03/07 11:22:47;;;;;;;0.60;0.60;;;6.30;67.40;;;;;;5095404;28;20036;-73
2022/03/07 11:25:16;;;;;;;1.10;0.70;;;6.30;67.40;;;;;;5113301;28;20087;-73
2022/03/07 11:27:43;;;;;;;1.40;0.80;;;6.40;67.40;;;;;;5094989;28;20067;-73
2022/03/07 11:30:14;;;;;;;1.23;0.70;;;6.40;67.20;;;;;;5113911;28;20039;-73
2022/03/07 11:32:40;;;;;;;0.90;0.65;;;6.50;67.00;;;;;;5077271;28;20044;-73
2022/03/07 11:35:06;;;;;;;1.20;1.00;;;6.50;67.00;;;;;;5113288;28;20054;-73
2022/03/07 11:37:33;;;;;;;1.55;0.75;;;6.50;66.90;;;;;;5113759;28;20046;-72
2022/03/07 11:40:00;;;;;;;1.15;0.90;;;6.70;66.90;;;;;;5094961;28;20046;-73
2022/03/07 11:42:37;;;;;;;0.75;0.70;;;6.70;66.70;;;;;;5113268;28;20039;-73
2022/03/07 11:45:07;;;;;;;1.48;1.10;;;6.70;66.60;;;;;;5112996;28;20043;-72
2022/03/07 11:47:39;;;;;;;2.08;1.15;;;6.70;66.50;;;;;;5113080;28;20043;-71
2022/03/07 11:50:06;;;;;;;2.35;1.20;;;6.80;66.40;;;;;;5094793;28;20038;-73
2022/03/07 11:52:33;;;;;;;1.92;1.13;;;6.70;66.10;;;;;;5094723;28;20146;-73
2022/03/07 11:55:01;;;;;;;1.83;1.23;;;6.70;66.50;;;;;;5113060;28;20085;-74
2022/03/07 11:57:39;;;;;;;1.52;1.13;;;6.70;66.60;;;;;;5094598;28;20089;-73
2022/03/07 12:00:13;;;;;;;1.55;1.00;;;6.60;66.50;;;;;;5095679;28;20477;-71
2022/03/07 12:02:42;;;;;;;2.65;1.40;;;6.70;66.70;;;;;;5092976;28;20078;-73
2022/03/07 12:05:20;;;;;;;1.77;1.20;;;6.70;66.60;;;;;;5111395;28;20044;-75
2022/03/07 12:07:46;;;;;;;1.85;1.20;;;6.80;66.50;;;;;;5094669;28;20058;-73
2022/03/07 12:10:11;;;;;;;1.70;1.10;;;6.90;66.30;;;;;;5113529;28;20458;-74
2022/03/07 12:12:37;;;;;;;1.48;0.98;;;7.00;66.20;;;;;;5112940;28;20530;-74
2022/03/07 12:15:09;;;;;;;2.10;1.00;;;7.10;66.10;;;;;;5112742;28;20039;-73
2022/03/07 12:17:35;;;;;;;2.08;1.17;;;7.30;65.80;;;;;;5113378;28;20070;-73
2022/03/07 12:20:01;;;;;;;2.50;1.23;;;7.30;65.60;;;;;;5113218;28;20039;-73
2022/03/07 12:22:29;;;;;;;4.07;1.23;;;7.50;65.50;;;;;;5119015;28;20393;-73
2022/03/07 12:24:59;;;;;;;1.05;0.90;;;7.70;65.40;;;;;;5101562;28;20079;-72
2022/03/07 12:27:25;;;;;;;1.87;1.17;;;7.80;65.20;;;;;;5119852;28;20059;-73
2022/03/07 12:29:51;;;;;;;2.58;0.98;;;7.80;64.90;;;;;;5119198;28;20493;-73
2022/03/07 12:32:18;;;;;;;1.60;1.05;;;8.00;64.80;;;;;;5101129;28;20039;-73
2022/03/07 12:34:44;;;;;;;1.90;1.13;;;7.90;64.90;;;;;;5119437;28;20122;-73
2022/03/07 12:37:16;;;;;;;1.65;1.10;;;7.90;65.00;;;;;;5101407;28;20052;-74
2022/03/07 12:39:44;;;;;;;;;;;7.90;65.00;;;;;;5119806;28;20558;-74
2022/03/07 12:42:10;;;;;;;2.25;1.33;;;7.80;65.00;;;;;;5100956;28;20272;-73
2022/03/07 12:44:38;;;;;;;2.15;1.30;;;7.70;65.40;;;;;;5119593;28;20107;-74
2022/03/07 12:47:04;;;;;;;1.77;1.02;;;7.70;65.90;;;;;;5119639;28;20040;-73
2022/03/07 12:49:30;;;;;;;1.67;1.30;;;7.80;66.00;;;;;;5119323;28;20036;-73